Antlers, Colorado
Current Conditions -  °F | °C
As of 7:53 AM on Saturday 22 Nov 2014 (Local Time) from KEEO Reporting Station
Broken Clouds Broken Clouds  
Wind Chill: 38°   Ceiling: 11000
Heat Index: 38°   Visibility: 10mi
Dew Point: 19°   Wind: 3mph
Humidity: 47%   Direction: NA
Pressure: 30.01"   Gusts: NA
Location:  39.7934°N, 108.135°W
Report Text: KEEO 221453Z AUTO VRB03KT 10SM BKN110 03/M07 A3001 RMK AO2 SLP157 T00331072 53001
Loading
Personal Weather Stations






























Interactive Weather Map New forecast layout! Learn more

10-Day Weather Forecast

Advertisements
Track Severe Weather on mobile